Time;durP1;ratioP1;P1;durP2;ratioP2;P2;SDS_P1;SDS_P2;PMS_P1;PMS_P2;Temp;Humidity;BMP_temperature;BMP_pressure;BME280_temperature;BME280_humidity;BME280_pressure;Samples;Min_cycle;Max_cycle;Signal;HPM_P1;HPM_P2
2022/01/10 05:10:08;;;;;;;2.50;2.40;;;0.30;99.90;;;;;;5074213;28;20230;-66
2022/01/10 05:12:35;;;;;;;2.15;2.05;;;0.30;99.90;;;;;;5074006;28;20745;-66
2022/01/10 05:15:01;;;;;;;2.28;2.17;;;0.30;99.90;;;;;;5074342;28;20261;-66
2022/01/10 05:17:28;;;;;;;2.40;2.20;;;0.30;99.90;;;;;;5074393;28;20307;-66
2022/01/10 05:19:55;;;;;;;2.05;1.95;;;0.30;99.90;;;;;;5074131;28;20306;-65
2022/01/10 05:22:22;;;;;;;1.88;1.75;;;0.30;99.90;;;;;;5074180;28;20246;-65
2022/01/10 05:24:49;;;;;;;1.70;1.70;;;0.30;99.90;;;;;;5073826;28;20736;-67
2022/01/10 05:27:17;;;;;;;2.25;2.15;;;0.30;99.90;;;;;;5073709;28;20720;-66
2022/01/10 05:29:44;;;;;;;2.83;2.63;;;0.30;99.90;;;;;;5074129;28;20192;-66
2022/01/10 05:32:11;;;;;;;3.25;2.92;;;0.30;99.90;;;;;;5074034;28;20248;-66
2022/01/10 05:34:38;;;;;;;3.22;3.03;;;0.30;99.90;;;;;;5074005;28;20202;-67
2022/01/10 05:37:05;;;;;;;2.72;2.53;;;0.30;99.90;;;;;;5073756;28;20259;-67
2022/01/10 05:39:31;;;;;;;3.35;3.05;;;0.30;99.90;;;;;;5073954;28;20224;-67
2022/01/10 05:41:58;;;;;;;3.33;3.03;;;0.40;99.90;;;;;;5073462;28;20689;-67
2022/01/10 05:44:28;;;;;;;2.70;2.55;;;0.30;99.90;;;;;;5073652;28;20200;-70
2022/01/10 05:46:55;;;;;;;2.22;2.13;;;0.30;99.90;;;;;;5073740;28;20324;-69
2022/01/10 05:49:26;;;;;;;2.80;2.60;;;0.20;99.90;;;;;;5073746;28;20299;-68
2022/01/10 05:51:53;;;;;;;2.47;2.38;;;0.30;99.90;;;;;;5073794;28;20188;-68
2022/01/10 05:54:20;;;;;;;2.20;2.10;;;0.20;99.90;;;;;;5074148;28;20228;-68
2022/01/10 05:56:47;;;;;;;1.85;1.80;;;0.20;99.90;;;;;;5073622;28;20258;-68
2022/01/10 05:59:14;;;;;;;2.25;2.15;;;0.30;99.90;;;;;;5073531;28;20226;-68
2022/01/10 06:01:43;;;;;;;2.60;2.40;;;0.30;99.90;;;;;;5073448;28;20292;-68
2022/01/10 06:04:10;;;;;;;2.47;2.38;;;0.20;99.90;;;;;;5073623;28;20282;-68
2022/01/10 06:06:36;;;;;;;2.22;2.10;;;0.30;99.90;;;;;;5073308;28;20706;-68
2022/01/10 06:09:04;;;;;;;2.00;1.90;;;0.30;99.90;;;;;;5073364;28;20207;-68
2022/01/10 11:24:54;;;;;;;3.28;3.08;;;4.00;99.90;;;;;;5870066;22;20255;-67
2022/01/10 11:27:33;;;;;;;3.08;2.83;;;4.00;99.90;;;;;;5077689;28;20214;-68
2022/01/10 11:30:01;;;;;;;3.00;2.80;;;4.10;99.90;;;;;;5077465;28;20622;-68
2022/01/10 11:32:51;;;;;;;3.65;3.35;;;4.10;99.90;;;;;;5077344;28;20291;-68
2022/01/10 11:35:19;;;;;;;3.42;3.20;;;4.10;99.90;;;;;;5077227;28;20220;-67
2022/01/10 11:37:47;;;;;;;4.00;3.60;;;4.00;99.90;;;;;;5076671;28;20298;-67
2022/01/10 11:40:16;;;;;;;4.22;3.70;;;4.00;99.90;;;;;;5077656;28;20216;-67
2022/01/10 11:42:52;;;;;;;4.38;3.97;;;3.80;99.90;;;;;;5103032;22;20228;-71
2022/01/10 11:45:19;;;;;;;4.35;3.53;;;3.70;99.90;;;;;;5076727;28;20191;-71
2022/01/10 11:48:15;;;;;;;4.03;3.72;;;3.60;99.90;;;;;;5076406;28;20204;-71
2022/01/10 11:50:46;;;;;;;4.20;3.78;;;3.50;99.90;;;;;;5076119;28;20548;-71
2022/01/10 11:53:16;;;;;;;4.50;4.03;;;3.40;99.90;;;;;;5075718;28;20558;-71
2022/01/10 11:55:53;;;;;;;5.53;4.20;;;3.30;99.90;;;;;;5075975;28;20207;-71
2022/01/10 11:58:22;;;;;;;4.30;4.00;;;3.20;99.90;;;;;;5076258;28;20184;-72
2022/01/10 12:00:50;;;;;;;4.20;3.90;;;3.10;99.90;;;;;;5075454;28;20758;-71
2022/01/10 12:03:19;;;;;;;5.63;4.35;;;3.10;99.90;;;;;;5076156;28;20204;-71
2022/01/10 12:05:49;;;;;;;5.97;3.90;;;3.00;99.90;;;;;;5075771;28;20199;-71
2022/01/10 12:08:16;;;;;;;3.15;2.90;;;2.90;99.90;;;;;;5075612;28;20200;-71
2022/01/10 12:10:44;;;;;;;5.40;3.17;;;3.00;99.90;;;;;;5075766;28;20286;-71
2022/01/10 12:13:14;;;;;;;7.82;3.38;;;3.00;99.90;;;;;;5075527;28;20662;-72
2022/01/10 12:15:41;;;;;;;3.20;2.60;;;2.90;99.90;;;;;;5074821;28;20685;-71
2022/01/10 12:18:10;;;;;;;4.28;2.60;;;2.80;99.90;;;;;;5075611;28;20290;-71
2022/01/10 12:20:37;;;;;;;3.53;2.53;;;2.80;99.90;;;;;;5075057;28;20748;-71
2022/01/10 12:23:04;;;;;;;2.47;2.30;;;2.70;99.90;;;;;;5075198;28;20566;-71
2022/01/10 12:25:31;;;;;;;2.95;2.70;;;2.80;99.90;;;;;;5075118;28;20755;-71
2022/01/10 12:28:00;;;;;;;2.75;2.53;;;2.80;99.90;;;;;;5075188;28;20292;-70
2022/01/10 12:30:31;;;;;;;2.78;2.45;;;2.90;99.90;;;;;;5075295;28;20196;-70
2022/01/10 12:32:58;;;;;;;3.40;3.10;;;2.90;99.90;;;;;;5075109;28;20276;-71
2022/01/10 12:35:25;;;;;;;5.00;3.03;;;3.00;99.90;;;;;;5075502;28;20269;-71
2022/01/10 12:37:57;;;;;;;4.47;3.22;;;2.80;99.90;;;;;;5076319;28;20286;-69
2022/01/10 12:40:27;;;;;;;4.55;2.75;;;2.90;99.90;;;;;;5074986;28;20636;-68
2022/01/10 12:42:54;;;;;;;6.35;3.30;;;3.00;99.90;;;;;;5075081;28;20228;-69
2022/01/10 12:45:21;;;;;;;7.22;3.60;;;3.00;99.90;;;;;;5075030;28;20238;-69
2022/01/10 12:47:49;;;;;;;5.85;3.88;;;3.10;99.90;;;;;;5074858;28;20331;-70
2022/01/10 12:50:16;;;;;;;5.38;3.40;;;3.10;99.90;;;;;;5075568;28;20208;-70
2022/01/10 12:52:43;;;;;;;4.07;3.20;;;3.30;99.90;;;;;;5074698;28;20224;-69
2022/01/10 12:55:11;;;;;;;3.80;3.50;;;3.30;99.90;;;;;;5074720;28;20204;-69
2022/01/10 12:57:38;;;;;;;5.00;3.70;;;3.30;99.90;;;;;;5074575;28;20203;-69
2022/01/10 13:00:09;;;;;;;3.00;2.70;;;3.20;99.90;;;;;;5074474;28;20306;-69
2022/01/10 13:02:36;;;;;;;5.70;2.97;;;3.20;99.90;;;;;;5074580;28;20396;-69
2022/01/10 13:05:08;;;;;;;4.00;2.85;;;3.10;99.90;;;;;;5074247;28;20242;-69
2022/01/10 13:07:37;;;;;;;3.05;2.42;;;3.00;99.90;;;;;;5074323;28;20667;-69
2022/01/10 13:10:07;;;;;;;3.20;2.83;;;2.90;99.90;;;;;;5075136;28;20536;-70
2022/01/10 13:12:36;;;;;;;2.60;2.38;;;2.90;99.90;;;;;;5074397;28;20695;-70
2022/01/10 13:15:09;;;;;;;2.15;2.05;;;3.00;99.90;;;;;;5074755;28;20200;-69
2022/01/10 13:17:36;;;;;;;2.75;2.10;;;3.00;99.90;;;;;;5075079;28;20199;-69
2022/01/10 13:20:08;;;;;;;3.40;2.65;;;3.00;99.90;;;;;;5074307;28;20238;-69
2022/01/10 13:22:37;;;;;;;2.60;2.40;;;3.00;99.90;;;;;;5074474;28;20306;-69
2022/01/10 13:25:08;;;;;;;2.50;2.30;;;2.80;99.90;;;;;;5074792;28;20362;-69
2022/01/10 13:27:36;;;;;;;4.25;2.20;;;2.80;99.90;;;;;;5073622;28;20203;-69
2022/01/10 13:48:19;;;;;;;3.05;2.75;;;3.00;99.90;;;;;;6016055;22;20234;-70
2022/01/10 13:50:48;;;;;;;2.55;2.40;;;2.90;99.90;;;;;;5073727;28;20211;-71
2022/01/10 13:53:18;;;;;;;2.38;2.17;;;2.90;99.90;;;;;;5073475;28;20678;-71
2022/01/10 13:56:05;;;;;;;2.95;2.15;;;2.90;99.90;;;;;;5073961;28;20188;-71
2022/01/10 13:58:33;;;;;;;2.40;2.20;;;2.90;99.90;;;;;;5073684;28;20224;-71
2022/01/10 14:01:03;;;;;;;2.35;2.00;;;2.90;99.90;;;;;;5074243;28;20654;-70
2022/01/10 14:03:33;;;;;;;2.08;1.90;;;3.00;99.90;;;;;;5073590;28;20720;-70
2022/01/10 14:06:11;;;;;;;2.40;2.30;;;3.00;99.90;;;;;;5073578;28;20283;-70
2022/01/10 14:08:41;;;;;;;2.08;1.98;;;3.00;99.90;;;;;;5073314;28;20307;-70
2022/01/10 14:11:13;;;;;;;1.98;1.88;;;3.00;99.90;;;;;;5073549;28;20196;-69
2022/01/10 14:13:41;;;;;;;1.90;1.80;;;2.90;99.90;;;;;;5073223;28;20224;-67
2022/01/10 14:16:08;;;;;;;1.80;1.70;;;2.90;99.90;;;;;;5073492;28;20203;-68
2022/01/10 14:18:37;;;;;;;1.73;1.63;;;2.80;99.90;;;;;;5073622;28;20311;-69
2022/01/10 14:21:04;;;;;;;2.42;1.98;;;2.80;99.90;;;;;;5074624;28;20747;-68
2022/01/10 14:23:32;;;;;;;2.28;1.98;;;2.70;99.90;;;;;;5073468;28;20222;-68
2022/01/10 14:25:59;;;;;;;2.17;2.08;;;2.70;99.90;;;;;;5073275;28;20619;-69
2022/01/10 14:28:26;;;;;;;3.17;2.60;;;2.60;99.90;;;;;;5073261;28;20224;-70
2022/01/10 14:30:53;;;;;;;2.35;2.15;;;2.60;99.90;;;;;;5073548;28;20230;-68
2022/01/10 14:33:23;;;;;;;2.72;2.10;;;2.60;99.90;;;;;;5073535;28;20279;-69
2022/01/10 14:35:53;;;;;;;2.78;2.20;;;2.60;99.90;;;;;;5073677;28;20253;-69
2022/01/10 14:38:20;;;;;;;3.45;2.80;;;2.60;99.90;;;;;;5073216;28;20302;-69
2022/01/10 14:40:48;;;;;;;2.15;2.05;;;2.60;99.90;;;;;;5076965;28;20314;-68
2022/01/10 14:43:15;;;;;;;2.47;2.20;;;2.60;99.90;;;;;;5077039;28;20191;-68
2022/01/10 14:45:42;;;;;;;2.28;2.03;;;2.60;99.90;;;;;;5077249;28;20287;-67
2022/01/10 14:48:09;;;;;;;2.40;1.98;;;2.60;99.90;;;;;;5077200;28;20220;-68
2022/01/10 14:50:36;;;;;;;2.72;2.13;;;2.50;99.90;;;;;;5076902;28;20288;-68
2022/01/10 14:53:06;;;;;;;2.08;1.98;;;2.50;99.90;;;;;;5077051;28;20206;-68
2022/01/10 14:55:34;;;;;;;2.33;2.13;;;2.50;99.90;;;;;;5076980;28;20271;-68
2022/01/10 14:58:01;;;;;;;2.28;2.17;;;2.40;99.90;;;;;;5076754;28;20199;-68
2022/01/10 15:00:28;;;;;;;2.38;2.15;;;2.40;99.90;;;;;;5077271;28;20246;-68
2022/01/10 15:02:55;;;;;;;2.72;2.53;;;2.40;99.90;;;;;;5076770;28;20250;-68
2022/01/10 15:05:22;;;;;;;2.30;2.10;;;2.30;99.90;;;;;;5076765;28;20195;-68
2022/01/10 15:07:49;;;;;;;3.03;2.35;;;2.30;99.90;;;;;;5077477;28;20610;-68
2022/01/10 15:10:17;;;;;;;2.30;2.20;;;2.30;99.90;;;;;;5076713;28;20287;-68
2022/01/10 15:12:44;;;;;;;2.20;2.00;;;2.30;99.90;;;;;;5076524;28;20231;-68
2022/01/10 15:15:11;;;;;;;1.95;1.85;;;2.30;99.90;;;;;;5076456;28;20322;-68
2022/01/10 15:17:39;;;;;;;1.58;1.52;;;2.30;99.90;;;;;;5076177;28;20271;-68
2022/01/10 15:20:08;;;;;;;2.13;2.03;;;2.30;99.90;;;;;;5076486;28;20216;-68
2022/01/10 15:22:35;;;;;;;1.77;1.77;;;2.30;99.90;;;;;;5076625;28;20211;-68
2022/01/10 15:25:03;;;;;;;1.95;1.80;;;2.20;99.90;;;;;;5076343;28;20678;-68
2022/01/10 15:27:32;;;;;;;2.10;2.00;;;2.20;99.90;;;;;;5076846;28;20204;-69
2022/01/10 15:29:58;;;;;;;1.90;1.80;;;2.20;99.90;;;;;;5076367;28;20733;-69
2022/01/10 15:32:25;;;;;;;2.35;2.20;;;2.20;99.90;;;;;;5076123;28;20287;-69
2022/01/10 15:34:52;;;;;;;2.10;2.00;;;2.10;99.90;;;;;;5076468;28;20543;-69
2022/01/10 15:37:19;;;;;;;2.05;1.95;;;2.10;99.90;;;;;;5075981;28;20283;-69
2022/01/10 15:39:48;;;;;;;1.60;1.60;;;2.10;99.90;;;;;;5076626;28;20594;-69
2022/01/10 15:42:15;;;;;;;1.58;1.58;;;2.10;99.90;;;;;;5075839;28;20278;-69
2022/01/10 15:44:46;;;;;;;1.50;1.50;;;2.10;99.90;;;;;;5076085;28;20599;-67
2022/01/10 15:47:15;;;;;;;1.98;1.88;;;2.00;99.90;;;;;;5075867;28;20546;-67
2022/01/10 15:49:43;;;;;;;2.00;1.90;;;2.00;99.90;;;;;;5075773;28;20339;-69
2022/01/10 15:52:13;;;;;;;2.03;1.95;;;1.90;99.90;;;;;;5075756;28;20200;-70
2022/01/10 15:54:40;;;;;;;2.50;2.40;;;2.00;99.90;;;;;;5076042;28;20216;-69
2022/01/10 15:57:07;;;;;;;2.30;2.20;;;2.00;99.90;;;;;;5076645;28;20303;-68
2022/01/10 15:59:34;;;;;;;3.00;2.90;;;2.00;99.90;;;;;;5076107;28;20307;-69
2022/01/10 16:02:02;;;;;;;2.75;2.55;;;1.90;99.90;;;;;;5075453;28;20720;-68
2022/01/10 16:04:29;;;;;;;2.70;2.50;;;1.90;99.90;;;;;;5075906;28;20287;-68
2022/01/10 16:06:56;;;;;;;2.45;2.35;;;1.90;99.90;;;;;;5076029;28;20267;-68
2022/01/10 16:09:23;;;;;;;3.10;2.80;;;1.90;99.90;;;;;;5075869;28;20274;-68
2022/01/10 16:11:50;;;;;;;2.97;2.60;;;1.90;99.90;;;;;;5076299;28;20726;-67
2022/01/10 16:14:17;;;;;;;3.78;3.47;;;1.90;99.90;;;;;;5075564;28;20204;-67
2022/01/10 16:16:45;;;;;;;2.90;2.70;;;1.90;99.90;;;;;;5077706;28;20619;-68
2022/01/10 16:19:15;;;;;;;2.97;2.78;;;1.90;99.90;;;;;;5079168;28;20293;-67
2022/01/10 16:21:42;;;;;;;5.15;4.05;;;1.80;99.90;;;;;;5078071;28;20223;-67
2022/01/10 16:24:10;;;;;;;4.38;3.95;;;1.80;99.90;;;;;;5079457;28;20184;-68
2022/01/10 16:26:37;;;;;;;3.78;3.35;;;1.70;99.90;;;;;;5079077;28;20215;-67
2022/01/10 16:29:04;;;;;;;4.55;3.63;;;1.70;99.90;;;;;;5078755;28;20216;-67
2022/01/10 16:31:33;;;;;;;7.57;5.18;;;1.60;99.90;;;;;;5078427;28;20243;-68
2022/01/10 16:34:00;;;;;;;7.13;5.32;;;1.60;99.90;;;;;;5078419;28;20245;-69
2022/01/10 16:36:28;;;;;;;5.22;4.45;;;1.50;99.90;;;;;;5077131;28;20207;-69
2022/01/10 16:38:56;;;;;;;7.50;4.55;;;1.40;99.90;;;;;;5076997;28;20223;-67
2022/01/10 16:41:23;;;;;;;4.38;4.07;;;1.40;99.90;;;;;;5077078;28;20307;-67
2022/01/10 16:43:51;;;;;;;7.38;4.63;;;1.40;99.90;;;;;;5074751;28;20286;-67
2022/01/10 16:46:18;;;;;;;5.78;3.97;;;1.30;99.90;;;;;;5075005;28;20291;-67
2022/01/10 16:48:45;;;;;;;3.80;3.55;;;1.20;99.90;;;;;;5075150;28;20310;-67
2022/01/10 16:51:13;;;;;;;5.60;3.72;;;1.20;99.90;;;;;;5075896;28;20199;-69
2022/01/10 16:53:41;;;;;;;3.60;3.40;;;1.10;99.90;;;;;;5075112;28;20287;-68
2022/01/10 16:56:09;;;;;;;3.30;3.10;;;1.10;99.90;;;;;;5074377;28;20632;-68
2022/01/10 16:58:36;;;;;;;3.50;3.20;;;1.00;99.90;;;;;;5074422;28;20307;-68
2022/01/10 17:01:03;;;;;;;2.90;2.72;;;1.00;99.90;;;;;;5077611;28;20312;-66
2022/01/10 17:03:31;;;;;;;3.15;2.85;;;0.90;99.90;;;;;;5078079;28;20291;-66
2022/01/10 17:05:59;;;;;;;3.15;2.95;;;0.90;99.90;;;;;;5078225;28;20207;-68
2022/01/10 17:08:26;;;;;;;3.95;3.25;;;0.80;99.90;;;;;;5077731;28;20224;-68
2022/01/10 17:10:55;;;;;;;3.42;3.08;;;0.80;99.90;;;;;;5077391;28;20200;-67
2022/01/10 17:13:23;;;;;;;3.22;3.03;;;0.80;99.90;;;;;;5078447;28;20204;-67
2022/01/10 17:15:50;;;;;;;3.28;3.08;;;0.70;99.90;;;;;;5074376;28;20290;-68
2022/01/10 17:18:17;;;;;;;3.00;2.88;;;0.70;99.90;;;;;;5074068;28;20228;-68
2022/01/10 17:20:45;;;;;;;2.58;2.47;;;0.60;99.90;;;;;;5074234;28;20290;-68
2022/01/10 17:23:11;;;;;;;2.40;2.30;;;0.60;99.90;;;;;;5074799;28;20287;-68
2022/01/10 17:25:39;;;;;;;3.53;2.75;;;0.50;99.90;;;;;;5075329;28;20286;-68
2022/01/10 17:28:07;;;;;;;2.63;2.38;;;0.50;99.90;;;;;;5074454;28;20231;-68
2022/01/10 17:30:34;;;;;;;2.30;2.20;;;0.50;99.90;;;;;;5074352;28;20290;-68
2022/01/10 17:33:01;;;;;;;2.63;2.42;;;0.40;99.90;;;;;;5073831;28;20645;-68
2022/01/10 17:35:28;;;;;;;2.17;2.08;;;0.40;99.90;;;;;;5074304;28;20204;-68
2022/01/10 17:37:55;;;;;;;2.67;2.58;;;0.40;99.90;;;;;;5074186;28;20291;-68
2022/01/10 17:40:22;;;;;;;2.20;2.10;;;0.30;99.90;;;;;;5074127;28;20267;-68
2022/01/10 17:42:49;;;;;;;2.45;2.30;;;0.20;99.90;;;;;;5073782;28;20314;-67
2022/01/10 17:45:19;;;;;;;2.20;2.10;;;0.20;99.90;;;;;;5075331;28;20227;-67
2022/01/10 17:47:46;;;;;;;2.50;2.30;;;0.10;99.90;;;;;;5077623;28;20200;-67
2022/01/10 17:50:17;;;;;;;2.40;2.30;;;0.10;99.90;;;;;;5076374;28;20724;-66
2022/01/10 17:52:50;;;;;;;2.10;2.00;;;0.10;99.90;;;;;;5077853;28;20180;-67
2022/01/10 17:55:20;;;;;;;2.35;2.25;;;0.00;99.90;;;;;;5076199;28;20188;-67
2022/01/10 17:57:48;;;;;;;2.70;2.55;;;0.00;99.90;;;;;;5077073;28;20203;-68
2022/01/10 18:00:20;;;;;;;2.35;2.20;;;-0.10;99.90;;;;;;5076417;28;20200;-68
2022/01/10 18:02:47;;;;;;;2.60;2.40;;;-0.10;99.90;;;;;;5077303;28;20200;-67
2022/01/10 18:05:17;;;;;;;2.03;2.00;;;-0.10;99.90;;;;;;5076399;28;20195;-68
2022/01/10 18:07:45;;;;;;;2.50;2.40;;;-0.20;99.90;;;;;;5078150;28;20199;-68
2022/01/10 18:10:13;;;;;;;2.45;2.30;;;-0.20;99.90;;;;;;5076755;28;20287;-67
2022/01/10 18:12:41;;;;;;;2.40;2.30;;;-0.20;99.90;;;;;;5077234;28;20235;-67
2022/01/10 18:15:10;;;;;;;2.08;2.00;;;-0.30;99.90;;;;;;5075918;28;20204;-66
2022/01/10 18:17:41;;;;;;;2.83;2.63;;;-0.40;99.90;;;;;;5079242;28;20287;-68
2022/01/10 18:20:11;;;;;;;2.20;2.05;;;-0.40;99.90;;;;;;5077022;28;20269;-69
2022/01/10 18:22:39;;;;;;;2.38;2.28;;;-0.40;99.90;;;;;;5077176;28;20561;-69
2022/01/10 18:25:09;;;;;;;2.53;2.42;;;-0.50;99.90;;;;;;5077980;28;20196;-68
2022/01/10 18:27:37;;;;;;;1.92;1.83;;;-0.50;99.90;;;;;;5077219;28;20674;-67
2022/01/10 18:30:07;;;;;;;2.60;2.50;;;-0.50;99.90;;;;;;5077404;28;20224;-66
2022/01/10 18:32:34;;;;;;;2.10;2.00;;;-0.60;99.90;;;;;;5076566;28;20234;-66
2022/01/10 18:35:04;;;;;;;2.78;2.17;;;-0.60;99.90;;;;;;5077016;28;20640;-66
2022/01/10 18:37:31;;;;;;;3.33;3.03;;;-0.60;99.90;;;;;;5078612;28;20196;-68
2022/01/10 18:40:00;;;;;;;2.40;2.30;;;-0.60;99.90;;;;;;5076833;28;20311;-68
2022/01/10 18:42:27;;;;;;;3.22;3.03;;;-0.70;99.90;;;;;;5076600;28;20574;-69
2022/01/10 18:44:54;;;;;;;2.33;2.30;;;-0.70;99.90;;;;;;5077318;28;20200;-69
2022/01/10 18:47:24;;;;;;;2.72;2.53;;;-0.70;99.90;;;;;;5076351;28;20200;-70
2022/01/10 18:49:52;;;;;;;2.72;2.58;;;-0.70;99.90;;;;;;5076527;28;20259;-70
2022/01/10 18:52:21;;;;;;;2.83;2.40;;;-0.80;99.90;;;;;;5076597;28;20200;-70
2022/01/10 18:54:49;;;;;;;2.70;2.50;;;-0.80;99.90;;;;;;5077456;28;20177;-70
2022/01/10 18:57:17;;;;;;;3.20;3.00;;;-0.80;99.90;;;;;;5076448;28;20200;-68
2022/01/10 18:59:44;;;;;;;2.72;2.63;;;-0.80;99.90;;;;;;5076561;28;20251;-69
2022/01/10 19:02:11;;;;;;;2.28;2.17;;;-0.90;99.90;;;;;;5074911;28;20228;-69
2022/01/10 19:04:38;;;;;;;2.85;2.65;;;-0.90;99.90;;;;;;5073223;28;20196;-70
2022/01/10 19:07:07;;;;;;;2.28;2.25;;;-0.90;99.90;;;;;;5073118;28;20287;-69
2022/01/10 19:09:35;;;;;;;2.70;2.50;;;-1.00;99.90;;;;;;5072655;28;20695;-69
2022/01/10 19:12:02;;;;;;;2.55;2.45;;;-1.00;99.90;;;;;;5072655;28;20663;-69
2022/01/10 19:14:30;;;;;;;2.67;2.58;;;-1.00;99.90;;;;;;5073175;28;20287;-69
2022/01/10 19:16:57;;;;;;;2.83;2.47;;;-1.10;99.90;;;;;;5073014;28;20298;-69
2022/01/10 19:19:24;;;;;;;2.35;2.25;;;-1.10;99.90;;;;;;5072677;28;20310;-69
2022/01/10 19:21:51;;;;;;;2.88;2.67;;;-1.10;99.90;;;;;;5072907;28;20307;-69
2022/01/10 19:24:18;;;;;;;2.30;2.20;;;-1.10;99.90;;;;;;5072970;28;20291;-70
2022/01/10 19:26:46;;;;;;;2.60;2.40;;;-1.10;99.90;;;;;;5075674;28;20290;-70
2022/01/10 19:29:13;;;;;;;2.65;2.40;;;-1.00;99.90;;;;;;5076576;28;20311;-70
2022/01/10 19:31:41;;;;;;;2.25;2.15;;;-1.00;99.90;;;;;;5076452;28;20299;-70
2022/01/10 19:34:08;;;;;;;2.50;2.40;;;-1.00;99.90;;;;;;5076155;28;20295;-69
2022/01/10 19:36:34;;;;;;;2.67;2.58;;;-1.00;99.90;;;;;;5076228;28;20558;-70
2022/01/10 19:39:01;;;;;;;2.55;2.45;;;-1.00;99.90;;;;;;5076060;28;20216;-69
2022/01/10 19:41:29;;;;;;;2.25;2.15;;;-0.90;99.90;;;;;;5076319;28;20287;-70
2022/01/10 19:43:59;;;;;;;3.92;2.90;;;-0.80;99.90;;;;;;5076330;28;20228;-70
2022/01/10 19:46:27;;;;;;;2.78;2.67;;;-0.80;99.90;;;;;;5076341;28;20187;-70
2022/01/10 19:48:55;;;;;;;3.20;2.90;;;-0.80;99.90;;;;;;5076078;28;20288;-70
2022/01/10 19:51:21;;;;;;;3.83;3.53;;;-0.80;99.90;;;;;;5075766;28;20298;-70
2022/01/10 19:53:48;;;;;;;3.70;3.50;;;-0.80;99.90;;;;;;5076092;28;20294;-71
2022/01/10 19:56:15;;;;;;;4.50;4.13;;;-0.70;99.90;;;;;;5076078;28;20299;-71
2022/01/10 19:58:42;;;;;;;3.92;3.60;;;-0.70;99.90;;;;;;5075681;28;20790;-70
2022/01/10 20:01:10;;;;;;;3.67;3.38;;;-0.70;99.90;;;;;;5076447;28;20241;-70
2022/01/10 20:03:37;;;;;;;3.92;3.72;;;-0.70;99.90;;;;;;5075799;28;20318;-68
2022/01/10 20:06:05;;;;;;;3.72;3.42;;;-0.60;99.90;;;;;;5075897;28;20203;-68
2022/01/10 20:08:34;;;;;;;4.00;3.70;;;-0.60;99.90;;;;;;5075683;28;20310;-69
2022/01/10 20:11:00;;;;;;;3.83;3.47;;;-0.60;99.90;;;;;;5075543;28;20223;-68
2022/01/10 20:13:28;;;;;;;3.50;3.30;;;-0.60;99.90;;;;;;5075998;28;20282;-68
2022/01/10 20:15:56;;;;;;;4.00;3.70;;;-0.60;99.90;;;;;;5075635;28;20251;-68
2022/01/10 20:18:25;;;;;;;3.80;3.50;;;-0.60;99.90;;;;;;5075300;28;20722;-69
2022/01/10 20:20:52;;;;;;;3.92;3.63;;;-0.60;99.90;;;;;;5075408;28;20754;-69
2022/01/10 20:23:20;;;;;;;3.67;3.47;;;-0.60;99.90;;;;;;5075492;28;20216;-69
2022/01/10 20:25:50;;;;;;;4.20;3.90;;;-0.60;99.90;;;;;;5075436;28;20224;-68
2022/01/10 20:28:17;;;;;;;4.00;3.63;;;-0.70;99.90;;;;;;5075256;28;20219;-69
2022/01/10 20:30:44;;;;;;;4.07;3.67;;;-0.70;99.90;;;;;;5075412;28;20240;-68
2022/01/10 20:33:11;;;;;;;4.00;3.80;;;-0.70;99.90;;;;;;5075005;28;20679;-69
2022/01/10 20:35:40;;;;;;;3.47;3.22;;;-0.70;99.90;;;;;;5074965;28;20207;-68
2022/01/10 20:38:07;;;;;;;3.97;3.60;;;-0.70;99.90;;;;;;5074509;28;20312;-69
2022/01/10 20:40:34;;;;;;;4.18;3.78;;;-0.70;99.90;;;;;;5075124;28;20290;-69
2022/01/10 20:43:04;;;;;;;4.30;3.85;;;-0.70;99.90;;;;;;5075042;28;20228;-69
2022/01/10 20:45:31;;;;;;;4.40;3.83;;;-0.70;99.90;;;;;;5075012;28;20294;-69
2022/01/10 20:47:58;;;;;;;4.40;4.00;;;-0.60;99.90;;;;;;5074917;28;20246;-70
2022/01/10 20:50:26;;;;;;;3.30;3.10;;;-0.60;99.90;;;;;;5074891;28;20215;-69
2022/01/10 20:52:55;;;;;;;3.80;3.50;;;-0.60;99.90;;;;;;5074916;28;20235;-69
2022/01/10 20:55:23;;;;;;;4.10;3.80;;;-0.60;99.90;;;;;;5074890;28;20236;-69
2022/01/10 20:57:52;;;;;;;3.72;3.42;;;-0.60;99.90;;;;;;5074569;28;20204;-70
2022/01/10 21:00:19;;;;;;;3.80;3.50;;;-0.60;99.90;;;;;;5074483;28;20199;-69
2022/01/10 21:02:45;;;;;;;3.50;3.30;;;-0.60;99.90;;;;;;5074649;28;20657;-69
2022/01/10 21:05:14;;;;;;;3.85;3.55;;;-0.60;99.90;;;;;;5074670;28;20295;-69
2022/01/10 21:07:43;;;;;;;3.88;3.58;;;-0.60;99.90;;;;;;5074642;28;20200;-68
2022/01/10 21:10:12;;;;;;;3.92;3.63;;;-0.60;99.90;;;;;;5074748;28;20220;-68
2022/01/10 21:12:39;;;;;;;4.82;4.00;;;-0.60;99.90;;;;;;5074471;28;20283;-68
2022/01/10 21:15:06;;;;;;;4.55;4.15;;;-0.60;99.90;;;;;;5074409;28;20231;-68
2022/01/10 21:17:33;;;;;;;4.95;4.25;;;-0.60;99.90;;;;;;5074530;28;20702;-68
2022/01/10 21:20:04;;;;;;;4.13;3.72;;;-0.60;99.90;;;;;;5074120;28;20759;-69
2022/01/10 21:22:38;;;;;;;4.45;4.05;;;-0.50;99.90;;;;;;5074144;28;20770;-69
2022/01/10 21:25:07;;;;;;;4.35;3.88;;;-0.70;99.90;;;;;;5074449;28;20214;-70
2022/01/10 21:27:36;;;;;;;4.40;4.10;;;-0.70;99.90;;;;;;5074119;28;20659;-69
2022/01/10 21:30:03;;;;;;;3.78;3.33;;;-0.70;99.90;;;;;;5074170;28;20224;-69
2022/01/10 21:32:30;;;;;;;3.80;3.30;;;-0.70;99.90;;;;;;5073958;28;20652;-69
2022/01/10 21:34:57;;;;;;;4.05;3.60;;;-0.70;99.90;;;;;;5074122;28;20287;-69
2022/01/10 21:37:27;;;;;;;3.70;3.47;;;-0.80;99.90;;;;;;5074151;28;20631;-67
2022/01/10 21:39:53;;;;;;;3.55;3.25;;;-0.90;99.90;;;;;;5073590;28;20699;-67
2022/01/10 21:42:20;;;;;;;3.47;3.22;;;-0.90;99.90;;;;;;5073962;28;20255;-68
2022/01/10 21:44:49;;;;;;;3.63;3.33;;;-1.00;99.90;;;;;;5073946;28;20200;-68
2022/01/10 21:47:15;;;;;;;3.45;3.10;;;-1.00;99.90;;;;;;5074143;28;20279;-68
2022/01/10 21:49:42;;;;;;;3.70;3.35;;;-1.10;99.90;;;;;;5072567;28;20674;-68
2022/01/10 21:52:09;;;;;;;3.97;2.78;;;-1.10;99.90;;;;;;5073956;28;20204;-70
2022/01/10 21:54:36;;;;;;;2.97;2.78;;;-1.20;99.90;;;;;;5073895;28;20290;-69
2022/01/10 21:57:03;;;;;;;2.88;2.67;;;-1.20;99.90;;;;;;5073569;28;20736;-69
2022/01/10 21:59:30;;;;;;;3.25;3.05;;;-1.30;99.90;;;;;;5073772;28;20322;-69
2022/01/10 22:01:58;;;;;;;3.70;3.30;;;-1.40;99.90;;;;;;5073900;28;20231;-68
2022/01/10 22:04:25;;;;;;;3.22;3.03;;;-1.40;99.90;;;;;;5073637;28;20681;-68
2022/01/10 22:06:52;;;;;;;3.30;3.10;;;-1.50;99.90;;;;;;5073923;28;20254;-68
2022/01/10 22:09:19;;;;;;;3.20;3.00;;;-1.50;99.90;;;;;;5073722;28;20255;-68
2022/01/10 22:11:46;;;;;;;3.55;3.25;;;-1.50;99.90;;;;;;5074113;28;20287;-68
2022/01/10 22:14:13;;;;;;;4.75;4.18;;;-1.60;99.90;;;;;;5074018;28;20295;-68
2022/01/10 22:16:40;;;;;;;3.63;3.33;;;-1.50;99.90;;;;;;5074049;28;20294;-68
2022/01/10 22:19:08;;;;;;;5.10;3.67;;;-1.50;99.90;;;;;;5074648;28;20306;-68
2022/01/10 22:21:36;;;;;;;3.78;3.55;;;-1.50;99.90;;;;;;5075239;28;20261;-68
2022/01/10 22:24:04;;;;;;;3.65;3.42;;;-1.40;99.90;;;;;;5074838;28;20647;-68
2022/01/10 22:26:30;;;;;;;3.45;3.17;;;-1.30;99.90;;;;;;5073540;28;20287;-68
2022/01/10 22:28:59;;;;;;;3.67;3.38;;;-1.20;99.90;;;;;;5073406;28;20766;-69
2022/01/10 22:31:26;;;;;;;3.60;3.30;;;-1.10;99.90;;;;;;5073592;28;20200;-68
2022/01/10 22:33:53;;;;;;;3.67;3.42;;;-1.10;99.90;;;;;;5073131;28;20286;-66
